Time;durP1;ratioP1;P1;durP2;ratioP2;P2;SDS_P1;SDS_P2;PMS_P1;PMS_P2;Temp;Humidity;BMP_temperature;BMP_pressure;BME280_temperature;BME280_humidity;BME280_pressure;Samples;Min_cycle;Max_cycle;Signal;HPM_P1;HPM_P2
2021/12/12 00:01:05;;;;;;;124.28;33.53;;;2.50;99.90;;;;;;5009348;28;20037;-52
2021/12/12 00:03:45;;;;;;;118.75;34.65;;;2.50;99.90;;;;;;4993388;28;20092;-55
2021/12/12 00:06:19;;;;;;;136.35;36.42;;;2.50;99.90;;;;;;5010654;28;20312;-54
2021/12/12 00:08:49;;;;;;;121.45;34.78;;;2.50;99.90;;;;;;5009182;28;20022;-55
2021/12/12 00:11:19;;;;;;;114.43;35.97;;;2.50;99.90;;;;;;5010079;28;20030;-53
2021/12/12 00:13:49;;;;;;;111.72;33.55;;;2.50;99.90;;;;;;5001635;28;20120;-52
2021/12/12 00:16:15;;;;;;;117.65;35.05;;;2.60;99.90;;;;;;5007559;28;20119;-55
2021/12/12 00:18:41;;;;;;;116.03;34.97;;;2.70;99.90;;;;;;5010192;28;20026;-56
2021/12/12 00:21:10;;;;;;;130.60;35.70;;;2.70;99.90;;;;;;5011280;28;20502;-56
2021/12/12 00:23:36;;;;;;;119.38;34.65;;;2.60;99.90;;;;;;5009094;28;20034;-51
2021/12/12 00:26:03;;;;;;;115.13;35.97;;;2.70;99.90;;;;;;5010742;28;20059;-50
2021/12/12 00:28:29;;;;;;;123.05;34.30;;;2.70;99.90;;;;;;5009219;28;20103;-53
2021/12/12 00:30:58;;;;;;;118.85;33.95;;;2.70;99.90;;;;;;5009601;28;20030;-52
2021/12/12 00:33:25;;;;;;;122.32;36.05;;;2.70;99.90;;;;;;5008339;28;20037;-55
2021/12/12 00:35:51;;;;;;;114.03;33.08;;;2.70;99.90;;;;;;5009525;28;20050;-51
2021/12/12 00:38:25;;;;;;;114.50;34.70;;;2.70;99.90;;;;;;5009982;28;20032;-51
2021/12/12 00:40:53;;;;;;;119.65;33.67;;;2.70;99.90;;;;;;5009600;28;20053;-52
2021/12/12 00:43:25;;;;;;;116.75;35.42;;;2.70;99.90;;;;;;5007899;28;20411;-53
2021/12/12 00:45:53;;;;;;;128.98;36.58;;;2.70;99.90;;;;;;5002992;28;20081;-52
2021/12/12 00:48:20;;;;;;;116.75;34.85;;;2.70;99.90;;;;;;5008086;28;20124;-55
2021/12/12 00:50:46;;;;;;;120.50;36.17;;;2.70;99.90;;;;;;5005124;28;20057;-56
2021/12/12 00:53:13;;;;;;;114.75;34.60;;;2.80;99.90;;;;;;5007707;28;20033;-52
2021/12/12 00:55:41;;;;;;;108.43;34.72;;;2.80;99.90;;;;;;5008797;28;20060;-55
2021/12/12 00:58:13;;;;;;;102.72;32.50;;;2.80;99.90;;;;;;5009581;28;20113;-56
2021/12/12 01:00:48;;;;;;;107.25;34.03;;;2.80;99.90;;;;;;5001487;28;20030;-52
2021/12/12 01:03:16;;;;;;;112.38;36.03;;;2.80;99.90;;;;;;5008913;28;20036;-55
2021/12/12 01:05:44;;;;;;;102.88;33.85;;;2.80;99.90;;;;;;5009453;28;20030;-53
2021/12/12 01:08:10;;;;;;;111.40;35.05;;;2.80;99.90;;;;;;5009656;28;20030;-51
2021/12/12 01:10:39;;;;;;;111.25;33.45;;;2.90;99.90;;;;;;5009911;28;20030;-56
2021/12/12 01:13:07;;;;;;;106.13;33.63;;;2.80;99.90;;;;;;5007150;28;20030;-53
2021/12/12 01:15:40;;;;;;;102.95;30.88;;;2.80;99.90;;;;;;5008133;28;20105;-51
2021/12/12 01:18:14;;;;;;;95.25;31.73;;;2.90;99.90;;;;;;5008724;28;20410;-53
2021/12/12 01:20:45;;;;;;;97.95;30.50;;;2.90;99.90;;;;;;5002241;28;20105;-58
2021/12/12 01:23:20;;;;;;;93.03;32.22;;;2.90;99.90;;;;;;5005470;28;20280;-55
2021/12/12 01:25:48;;;;;;;92.38;30.63;;;2.90;99.90;;;;;;5008940;28;20033;-51
2021/12/12 01:28:17;;;;;;;96.40;32.03;;;3.00;99.90;;;;;;5009288;28;20030;-53
2021/12/12 01:30:45;;;;;;;90.13;31.05;;;3.00;99.90;;;;;;5009024;28;20113;-51
2021/12/12 01:33:12;;;;;;;90.40;33.10;;;3.00;99.90;;;;;;5003622;28;20030;-51
2021/12/12 01:35:39;;;;;;;90.88;31.42;;;3.00;99.90;;;;;;5010283;28;20473;-52
2021/12/12 01:40:54;;;;;;;96.78;32.22;;;3.10;99.90;;;;;;5009049;28;20111;-53
2021/12/12 01:43:38;;;;;;;85.85;31.42;;;3.10;99.90;;;;;;5008638;28;20157;-52
2021/12/12 01:46:18;;;;;;;91.28;31.80;;;3.10;99.90;;;;;;5008399;28;20029;-52
2021/12/12 01:48:49;;;;;;;90.25;32.22;;;3.10;99.90;;;;;;5006408;28;20034;-51
2021/12/12 01:51:16;;;;;;;88.47;32.33;;;3.20;99.90;;;;;;5008939;28;20026;-55
2021/12/12 01:53:46;;;;;;;94.35;32.15;;;3.20;99.90;;;;;;5006927;28;20038;-57
2021/12/12 01:56:21;;;;;;;77.88;30.05;;;3.20;99.90;;;;;;5008033;28;20037;-57
2021/12/12 01:58:51;;;;;;;87.57;31.63;;;3.20;99.90;;;;;;5008596;28;20030;-52
2021/12/12 02:01:26;;;;;;;84.20;29.83;;;3.20;99.90;;;;;;5007685;28;20052;-54
2021/12/12 02:03:58;;;;;;;78.05;27.95;;;3.20;99.90;;;;;;5007628;28;20105;-56
2021/12/12 02:06:23;;;;;;;80.13;28.77;;;3.20;99.90;;;;;;5005540;28;20495;-54
2021/12/12 02:08:51;;;;;;;81.90;29.83;;;3.20;99.90;;;;;;5005426;28;20070;-53
2021/12/12 02:11:23;;;;;;;79.45;29.50;;;3.20;99.90;;;;;;5006546;28;20500;-53
2021/12/12 02:13:52;;;;;;;74.63;30.48;;;3.30;99.90;;;;;;5004945;28;20506;-55
2021/12/12 02:16:21;;;;;;;79.88;29.80;;;3.30;99.90;;;;;;5007789;28;20113;-52
2021/12/12 02:18:51;;;;;;;74.63;29.52;;;3.30;99.90;;;;;;5006413;28;20105;-53
2021/12/12 02:21:26;;;;;;;81.03;27.70;;;3.30;99.90;;;;;;5006687;28;20120;-53
2021/12/12 02:37:29;;;;;;;77.38;28.65;;;3.40;99.90;;;;;;5008557;28;20052;-53
2021/12/12 02:39:55;;;;;;;75.72;26.63;;;3.30;99.90;;;;;;5006255;28;20026;-55
2021/12/12 02:42:23;;;;;;;72.18;28.17;;;3.40;99.90;;;;;;5007787;28;20029;-52
2021/12/12 02:44:54;;;;;;;76.03;28.83;;;3.40;99.90;;;;;;5007376;28;20503;-50
2021/12/12 02:47:24;;;;;;;74.57;27.13;;;3.40;99.90;;;;;;5008259;28;20495;-52
2021/12/12 02:52:20;;;;;;;75.53;28.38;;;3.50;99.90;;;;;;5006647;28;20038;-55
2021/12/12 02:54:46;;;;;;;69.05;27.65;;;3.50;99.90;;;;;;5007447;28;20030;-53
2021/12/12 02:57:15;;;;;;;79.10;28.20;;;3.50;99.90;;;;;;5008048;28;20116;-53
2021/12/12 02:59:45;;;;;;;70.20;28.50;;;3.50;99.90;;;;;;5009067;28;20407;-53
2021/12/12 03:02:15;;;;;;;69.90;29.02;;;3.50;99.90;;;;;;5005037;28;20037;-53
2021/12/12 03:04:41;;;;;;;69.28;28.38;;;3.40;99.90;;;;;;5008053;28;20030;-54
2021/12/12 03:07:10;;;;;;;72.13;29.75;;;3.50;99.90;;;;;;5007898;28;20442;-53
2021/12/12 03:09:40;;;;;;;71.53;29.38;;;3.50;99.90;;;;;;5007482;28;20048;-51
2021/12/12 03:12:17;;;;;;;76.63;29.83;;;3.50;99.90;;;;;;5010576;28;20188;-55
2021/12/12 03:14:46;;;;;;;75.57;28.90;;;3.50;99.90;;;;;;5008665;28;20112;-52
2021/12/12 03:17:21;;;;;;;66.35;27.27;;;3.60;99.90;;;;;;5009843;28;20108;-52
2021/12/12 03:19:51;;;;;;;69.43;27.10;;;3.60;99.90;;;;;;5010850;28;20097;-54
2021/12/12 03:22:17;;;;;;;75.60;29.52;;;3.60;99.90;;;;;;5010952;28;20088;-55
2021/12/12 03:24:43;;;;;;;74.25;28.80;;;3.60;99.90;;;;;;5011270;28;20025;-55
2021/12/12 03:27:09;;;;;;;71.63;28.35;;;3.60;99.90;;;;;;5012715;28;20025;-54
2021/12/12 03:29:36;;;;;;;70.65;28.45;;;3.60;99.90;;;;;;5011190;28;20077;-54
2021/12/12 03:32:06;;;;;;;72.13;28.90;;;3.60;99.90;;;;;;5010338;28;20050;-54
2021/12/12 03:34:36;;;;;;;76.75;29.23;;;3.70;99.90;;;;;;5010590;28;20324;-54
2021/12/12 03:37:04;;;;;;;70.20;26.42;;;3.70;99.90;;;;;;5011875;28;20156;-52
2021/12/12 03:39:35;;;;;;;67.90;28.13;;;3.70;99.90;;;;;;5009166;28;20065;-56
2021/12/12 03:42:07;;;;;;;71.80;27.83;;;3.70;99.90;;;;;;5004617;28;20034;-53
2021/12/12 03:44:35;;;;;;;71.13;28.48;;;3.70;99.90;;;;;;5009699;28;20049;-54
2021/12/12 03:47:07;;;;;;;74.88;27.58;;;3.80;99.90;;;;;;5009918;28;20042;-51
2021/12/12 03:49:33;;;;;;;;;;;3.80;99.90;;;;;;5010880;28;20479;-51
2021/12/12 03:51:59;;;;;;;66.28;27.75;;;3.80;99.90;;;;;;5009821;28;20182;-49
2021/12/12 03:54:25;;;;;;;72.00;29.60;;;3.80;99.90;;;;;;5008970;28;20391;-53
2021/12/12 03:56:51;;;;;;;84.55;29.27;;;3.90;99.90;;;;;;5010089;28;20037;-52
2021/12/12 03:59:17;;;;;;;72.13;29.48;;;3.90;99.90;;;;;;5009071;28;20026;-50
2021/12/12 04:01:49;;;;;;;71.00;30.00;;;3.90;99.90;;;;;;5009227;28;20059;-53
2021/12/12 04:04:29;;;;;;;76.57;28.88;;;3.90;99.90;;;;;;5010397;28;20058;-52
2021/12/12 04:06:56;;;;;;;75.40;28.92;;;3.90;99.90;;;;;;5011151;28;20036;-50
2021/12/12 04:09:23;;;;;;;78.38;29.60;;;3.90;99.90;;;;;;5001404;28;20489;-51
2021/12/12 04:11:55;;;;;;;79.20;30.70;;;4.00;99.90;;;;;;5008791;28;20080;-51
2021/12/12 04:14:22;;;;;;;80.03;29.95;;;4.00;99.90;;;;;;5010934;28;20117;-53
2021/12/12 04:16:55;;;;;;;83.22;30.75;;;4.00;99.90;;;;;;5009962;28;20061;-52
2021/12/12 04:19:21;;;;;;;75.65;30.70;;;4.00;99.90;;;;;;5007897;28;20038;-51
2021/12/12 04:21:48;;;;;;;75.28;29.08;;;4.00;99.90;;;;;;5008680;28;20482;-52
2021/12/12 04:24:26;;;;;;;91.80;33.08;;;4.00;99.90;;;;;;5010748;28;20032;-53
2021/12/12 04:26:53;;;;;;;83.05;33.40;;;4.10;99.90;;;;;;5009858;28;20033;-52
2021/12/12 04:29:25;;;;;;;97.55;34.22;;;4.10;99.90;;;;;;5001662;28;20101;-52
2021/12/12 04:31:54;;;;;;;78.47;31.95;;;4.10;99.90;;;;;;5010474;28;20385;-49
2021/12/12 04:34:23;;;;;;;86.88;33.40;;;4.10;99.90;;;;;;5009310;28;20045;-53
2021/12/12 04:36:50;;;;;;;90.10;33.50;;;4.20;99.90;;;;;;5010474;28;20034;-54
2021/12/12 04:39:21;;;;;;;104.20;36.53;;;4.20;99.90;;;;;;5008062;28;20484;-53
2021/12/12 04:41:50;;;;;;;91.00;33.88;;;4.20;99.90;;;;;;5007876;28;20026;-52
2021/12/12 04:44:25;;;;;;;105.10;35.92;;;4.20;99.90;;;;;;5010294;28;20435;-51
2021/12/12 04:50:29;;;;;;;98.10;35.20;;;4.20;99.90;;;;;;5007876;28;20113;-53
2021/12/12 04:53:11;;;;;;;105.40;36.67;;;4.30;99.90;;;;;;5003900;28;20061;-54
2021/12/12 04:55:49;;;;;;;108.25;37.70;;;4.30;99.90;;;;;;5006504;28;20025;-51
2021/12/12 04:58:36;;;;;;;102.88;36.53;;;4.30;99.90;;;;;;5009506;28;20452;-51
2021/12/12 05:01:09;;;;;;;97.18;36.63;;;4.30;99.90;;;;;;5008115;28;20033;-52
2021/12/12 05:03:56;;;;;;;107.20;37.88;;;4.30;99.90;;;;;;5009053;28;20076;-56
2021/12/12 05:06:33;;;;;;;101.97;37.80;;;4.30;99.90;;;;;;5009640;28;20062;-51
2021/12/12 05:09:28;;;;;;;99.68;36.58;;;4.40;99.90;;;;;;5008222;28;20065;-53
2021/12/12 05:12:04;;;;;;;89.90;36.78;;;4.30;99.90;;;;;;4995520;28;20065;-50
2021/12/12 05:14:45;;;;;;;100.00;34.50;;;4.40;99.90;;;;;;5008776;28;20488;-51
2021/12/12 05:17:21;;;;;;;104.22;36.22;;;4.40;99.90;;;;;;5007967;28;20042;-57
2021/12/12 05:19:52;;;;;;;91.93;35.42;;;4.40;99.90;;;;;;5008882;28;20018;-52
2021/12/12 05:22:22;;;;;;;106.57;36.35;;;4.40;99.90;;;;;;5008775;28;20029;-51
2021/12/12 05:24:51;;;;;;;92.68;34.90;;;4.40;99.90;;;;;;5008818;28;20037;-53
2021/12/12 05:27:21;;;;;;;97.32;36.20;;;4.50;99.90;;;;;;5009697;28;20492;-53
2021/12/12 05:29:58;;;;;;;106.82;36.97;;;4.50;99.90;;;;;;5008911;28;20073;-52
2021/12/12 05:32:25;;;;;;;101.45;38.92;;;4.40;99.90;;;;;;5007981;28;20516;-52
2021/12/12 05:34:51;;;;;;;93.80;36.00;;;4.40;99.90;;;;;;5008602;28;20051;-51
2021/12/12 05:37:22;;;;;;;101.90;37.50;;;4.40;99.90;;;;;;5009047;28;20030;-52
2021/12/12 05:39:48;;;;;;;99.90;36.78;;;4.40;99.90;;;;;;5006704;28;20034;-51
2021/12/12 05:42:15;;;;;;;101.53;37.20;;;4.40;99.90;;;;;;5008449;28;20471;-54
2021/12/12 05:44:42;;;;;;;107.80;37.35;;;4.40;99.90;;;;;;5006665;28;20029;-57
2021/12/12 05:47:09;;;;;;;96.45;36.83;;;4.50;99.90;;;;;;5008018;28;20114;-54
2021/12/12 05:49:40;;;;;;;86.78;34.45;;;4.50;99.90;;;;;;5008978;28;20034;-52
2021/12/12 05:52:09;;;;;;;96.68;36.65;;;4.60;99.90;;;;;;5008968;28;20064;-57
2021/12/12 05:54:35;;;;;;;93.45;35.25;;;4.60;99.90;;;;;;5007539;28;20046;-52
2021/12/12 05:57:02;;;;;;;91.53;33.20;;;4.60;99.90;;;;;;5009476;28;20040;-52
2021/12/12 05:59:28;;;;;;;105.97;34.78;;;4.60;99.90;;;;;;5006316;28;20129;-54
2021/12/12 06:01:56;;;;;;;95.95;33.45;;;4.60;99.90;;;;;;5007698;28;20034;-56
2021/12/12 06:04:22;;;;;;;82.47;30.83;;;4.60;99.90;;;;;;5008634;28;20037;-62
2021/12/12 06:06:48;;;;;;;93.55;34.13;;;4.60;99.90;;;;;;5008788;28;20145;-62
2021/12/12 06:09:18;;;;;;;88.20;30.75;;;4.60;99.90;;;;;;5008692;28;20026;-62
2021/12/12 06:11:47;;;;;;;93.70;33.67;;;4.50;99.90;;;;;;5006980;28;20270;-64
2021/12/12 06:14:14;;;;;;;92.50;30.63;;;4.60;99.90;;;;;;5008280;28;20026;-61
2021/12/12 06:16:40;;;;;;;76.90;29.88;;;4.50;99.90;;;;;;5009038;28;20440;-61
2021/12/12 06:19:12;;;;;;;81.18;29.77;;;4.50;99.90;;;;;;5007860;28;20112;-59
2021/12/12 06:21:38;;;;;;;74.30;28.00;;;4.50;99.90;;;;;;5001329;28;20026;-62
2021/12/12 06:24:05;;;;;;;78.28;29.10;;;4.50;99.90;;;;;;5006493;28;20040;-62
2021/12/12 06:26:31;;;;;;;84.20;30.45;;;4.60;99.90;;;;;;5007642;28;20456;-63
2021/12/12 06:28:57;;;;;;;68.97;25.23;;;4.50;99.90;;;;;;5008047;28;20083;-62
2021/12/12 06:31:23;;;;;;;81.93;30.15;;;4.50;99.90;;;;;;5008566;28;20121;-62
2021/12/12 06:33:50;;;;;;;74.68;29.75;;;4.50;99.90;;;;;;5007256;28;20116;-61
2021/12/12 06:36:16;;;;;;;72.10;27.65;;;4.50;99.90;;;;;;5008613;28;20479;-58
2021/12/12 06:38:46;;;;;;;81.85;28.88;;;4.50;99.90;;;;;;5008089;28;20044;-60
2021/12/12 06:41:13;;;;;;;78.03;27.98;;;4.50;99.90;;;;;;5007077;28;20030;-59
2021/12/12 06:43:41;;;;;;;69.40;27.35;;;4.50;99.90;;;;;;5007862;28;20030;-57
2021/12/12 06:46:08;;;;;;;71.50;27.77;;;4.60;99.90;;;;;;5009404;28;20037;-61
2021/12/12 06:48:35;;;;;;;69.05;27.33;;;4.50;99.90;;;;;;5011859;28;20030;-60
2021/12/12 06:51:02;;;;;;;71.15;26.98;;;4.60;99.90;;;;;;5011472;28;20060;-62
2021/12/12 06:53:31;;;;;;;75.72;26.98;;;4.50;99.90;;;;;;5011414;28;20100;-62
2021/12/12 06:55:58;;;;;;;57.53;20.92;;;4.60;99.90;;;;;;5011542;28;20577;-60
2021/12/12 06:58:28;;;;;;;69.93;26.45;;;4.50;99.90;;;;;;5013039;28;20152;-62
2021/12/12 07:00:57;;;;;;;65.22;25.77;;;4.50;99.90;;;;;;5012506;28;20033;-62
2021/12/12 07:03:24;;;;;;;60.92;22.83;;;4.50;99.90;;;;;;5011057;28;20057;-60
2021/12/12 07:05:50;;;;;;;61.45;24.17;;;4.60;99.90;;;;;;5012518;28;20037;-61
2021/12/12 07:08:19;;;;;;;61.22;23.83;;;4.50;99.90;;;;;;5011807;28;20484;-62
2021/12/12 07:10:45;;;;;;;68.80;25.13;;;4.50;99.90;;;;;;5012055;28;20029;-63
2021/12/12 07:13:12;;;;;;;65.15;24.27;;;4.50;99.90;;;;;;5009306;28;20133;-61
2021/12/12 07:15:42;;;;;;;59.10;24.58;;;4.50;99.90;;;;;;5011030;28;20579;-60
2021/12/12 07:18:12;;;;;;;60.08;23.05;;;4.60;99.90;;;;;;5009080;28;20042;-58
2021/12/12 07:20:39;;;;;;;56.15;22.38;;;4.60;99.90;;;;;;5006798;28;20033;-59
2021/12/12 07:23:08;;;;;;;47.92;21.25;;;4.60;99.90;;;;;;5008931;28;20037;-57
2021/12/12 07:25:35;;;;;;;53.60;20.80;;;4.50;99.90;;;;;;5010296;28;20029;-58
2021/12/12 07:28:01;;;;;;;58.75;23.15;;;4.50;99.90;;;;;;5009993;28;20053;-59
2021/12/12 07:30:28;;;;;;;57.55;21.67;;;4.50;99.90;;;;;;5010062;28;20115;-58
2021/12/12 07:32:54;;;;;;;54.13;22.17;;;4.50;99.90;;;;;;5007917;28;20041;-57
2021/12/12 07:35:20;;;;;;;59.28;21.45;;;4.50;99.90;;;;;;5010901;28;20135;-58
2021/12/12 07:37:48;;;;;;;56.22;20.65;;;4.50;99.90;;;;;;5007517;28;20508;-58
2021/12/12 07:40:14;;;;;;;50.30;19.80;;;4.50;99.90;;;;;;5009558;28;20467;-55
2021/12/12 07:42:43;;;;;;;52.40;19.00;;;4.50;99.90;;;;;;5010502;28;20034;-56
2021/12/12 07:45:09;;;;;;;56.30;20.42;;;4.50;99.90;;;;;;5008672;28;20038;-59
2021/12/12 07:47:35;;;;;;;45.90;18.58;;;4.50;99.90;;;;;;5009780;28;20061;-59
2021/12/12 07:50:05;;;;;;;46.25;19.17;;;4.50;99.90;;;;;;5010848;28;20188;-55
2021/12/12 07:52:31;;;;;;;44.08;18.58;;;4.60;99.90;;;;;;5009281;28;20092;-61
2021/12/12 07:54:58;;;;;;;54.65;17.48;;;4.60;99.90;;;;;;5010348;28;20038;-63
2021/12/12 07:57:27;;;;;;;47.72;18.98;;;4.60;99.90;;;;;;5010328;28;20048;-62
2021/12/12 07:59:54;;;;;;;49.63;18.92;;;4.60;99.90;;;;;;5009617;28;20022;-63
2021/12/12 08:02:22;;;;;;;41.28;17.85;;;4.60;99.90;;;;;;5009049;28;20030;-60
2021/12/12 08:04:48;;;;;;;45.95;16.98;;;4.60;99.90;;;;;;5011218;28;20040;-63
2021/12/12 08:07:20;;;;;;;47.35;18.63;;;4.60;99.90;;;;;;5009975;28;20419;-63
2021/12/12 08:09:46;;;;;;;37.70;15.98;;;4.60;99.90;;;;;;5010107;28;20034;-63
2021/12/12 08:12:18;;;;;;;39.22;16.27;;;4.60;99.90;;;;;;5009975;28;20120;-63
2021/12/12 08:14:44;;;;;;;40.42;16.15;;;4.70;99.90;;;;;;5009361;28;20124;-64
2021/12/12 08:17:12;;;;;;;47.40;17.42;;;4.70;99.90;;;;;;5011378;28;20037;-66
2021/12/12 08:19:38;;;;;;;45.75;15.90;;;4.70;99.90;;;;;;5009977;28;20157;-64
2021/12/12 08:22:07;;;;;;;40.95;18.17;;;4.70;99.90;;;;;;5009755;28;20498;-64
2021/12/12 08:24:34;;;;;;;39.90;16.33;;;4.70;99.90;;;;;;5010417;28;20494;-66
2021/12/12 08:27:01;;;;;;;40.85;17.40;;;4.70;99.90;;;;;;5009726;28;20073;-64
2021/12/12 08:29:27;;;;;;;48.33;17.35;;;4.70;99.90;;;;;;5010422;28;20090;-64
2021/12/12 08:31:53;;;;;;;44.25;17.30;;;4.70;99.90;;;;;;5008153;28;20018;-65
2021/12/12 08:34:19;;;;;;;34.60;16.00;;;4.70;99.90;;;;;;5009965;28;20393;-63
2021/12/12 08:36:50;;;;;;;37.60;16.50;;;4.70;99.90;;;;;;5008471;28;20030;-63
2021/12/12 08:39:17;;;;;;;47.90;17.77;;;4.60;99.90;;;;;;5009801;28;20030;-64
2021/12/12 08:41:46;;;;;;;39.60;15.35;;;4.60;99.90;;;;;;5010321;28;20026;-64
2021/12/12 08:44:12;;;;;;;39.35;15.40;;;4.60;99.90;;;;;;5010244;28;20116;-64
2021/12/12 08:46:41;;;;;;;44.63;16.50;;;4.60;99.90;;;;;;5009689;28;20123;-62
2021/12/12 08:49:08;;;;;;;49.13;15.85;;;4.60;99.90;;;;;;5007997;28;20087;-62
2021/12/12 08:51:39;;;;;;;34.33;15.45;;;4.60;99.90;;;;;;5009251;28;20037;-63
2021/12/12 08:54:15;;;;;;;38.47;15.77;;;4.60;99.90;;;;;;5001497;28;20096;-63
2021/12/12 08:56:48;;;;;;;38.58;14.70;;;4.60;99.90;;;;;;5001652;28;20124;-62
2021/12/12 08:59:23;;;;;;;33.65;14.10;;;4.50;99.90;;;;;;5009726;28;20056;-63
2021/12/12 09:01:52;;;;;;;36.55;14.15;;;4.60;99.90;;;;;;5009679;28;20038;-63
2021/12/12 09:04:19;;;;;;;35.78;15.23;;;4.60;99.90;;;;;;5009112;28;20022;-63
2021/12/12 09:06:55;;;;;;;37.80;15.02;;;4.60;99.90;;;;;;5009992;28;20040;-63
2021/12/12 09:09:25;;;;;;;39.00;14.65;;;4.60;99.90;;;;;;5011067;28;20038;-62
2021/12/12 09:12:34;;;;;;;27.77;12.07;;;4.60;99.90;;;;;;5012039;28;20061;-63
2021/12/12 09:15:15;;;;;;;24.40;11.05;;;4.70;99.90;;;;;;4932313;29;20237;-64
2021/12/12 09:17:53;;;;;;;21.50;9.73;;;4.80;99.90;;;;;;4930735;29;20034;-64
2021/12/12 09:20:35;;;;;;;23.83;10.57;;;4.90;99.90;;;;;;4980851;28;20076;-63
2021/12/12 09:23:14;;;;;;;28.17;11.15;;;4.90;99.90;;;;;;5008547;28;20072;-64
2021/12/12 09:25:52;;;;;;;28.38;11.20;;;4.90;99.90;;;;;;5001177;28;20033;-64
2021/12/12 09:28:32;;;;;;;30.02;10.48;;;4.90;99.90;;;;;;5006558;28;20030;-64
2021/12/12 09:31:06;;;;;;;19.00;8.05;;;4.90;99.90;;;;;;5002688;28;20029;-63
2021/12/12 09:33:42;;;;;;;22.63;9.30;;;5.00;99.90;;;;;;5008877;28;20041;-64
2021/12/12 09:36:12;;;;;;;12.18;6.63;;;5.00;99.90;;;;;;5008358;28;20401;-63
2021/12/12 09:38:48;;;;;;;14.02;6.60;;;5.00;99.90;;;;;;5000263;28;20474;-60
2021/12/12 09:41:58;;;;;;;14.35;6.35;;;5.00;99.90;;;;;;5010460;28;20084;-61
2021/12/12 09:44:43;;;;;;;11.63;4.70;;;5.00;99.90;;;;;;5005971;28;20026;-61
2021/12/12 09:47:35;;;;;;;12.90;5.43;;;5.00;99.90;;;;;;5011459;28;20375;-62
2021/12/12 09:53:43;;;;;;;8.82;3.75;;;5.10;99.90;;;;;;5007330;28;20044;-63
2021/12/12 09:56:25;;;;;;;6.65;3.97;;;5.10;99.90;;;;;;5014676;28;20036;-63
2021/12/12 09:59:06;;;;;;;8.02;4.05;;;5.10;99.90;;;;;;4989539;28;20030;-63
2021/12/12 10:01:42;;;;;;;6.40;3.28;;;5.10;99.90;;;;;;5001798;28;20041;-63
2021/12/12 10:04:26;;;;;;;8.25;4.18;;;5.20;99.90;;;;;;5003473;28;20510;-62
2021/12/12 10:07:02;;;;;;;6.47;4.15;;;5.10;99.90;;;;;;5002971;28;20075;-62
2021/12/12 10:09:47;;;;;;;8.43;4.40;;;5.10;99.90;;;;;;5008633;28;20060;-62
2021/12/12 10:12:17;;;;;;;7.35;3.90;;;5.20;99.90;;;;;;5007514;28;20037;-64
2021/12/12 10:14:48;;;;;;;7.85;3.92;;;5.20;99.90;;;;;;5008813;28;20064;-63
2021/12/12 10:17:24;;;;;;;6.63;3.75;;;5.20;99.90;;;;;;5008947;28;20029;-62
2021/12/12 10:20:18;;;;;;;6.72;3.80;;;5.20;99.90;;;;;;5003552;28;20641;-62
2021/12/12 10:23:04;;;;;;;8.23;4.00;;;5.20;99.90;;;;;;5002264;28;20409;-62
2021/12/12 10:25:36;;;;;;;9.55;4.60;;;5.20;99.90;;;;;;5011108;28;20585;-64
2021/12/12 10:28:23;;;;;;;10.27;4.53;;;5.20;99.90;;;;;;5010003;28;20442;-65
2021/12/12 10:31:14;;;;;;;8.20;4.38;;;5.30;99.90;;;;;;5003552;28;20033;-65
2021/12/12 10:33:54;;;;;;;9.63;4.53;;;5.30;99.90;;;;;;4988132;28;20088;-64
2021/12/12 10:36:26;;;;;;;5.90;3.78;;;5.30;99.90;;;;;;5011387;28;20264;-66
2021/12/12 10:39:03;;;;;;;8.77;3.88;;;5.40;99.90;;;;;;5012143;28;20036;-65
2021/12/12 10:41:36;;;;;;;6.53;4.05;;;5.40;99.90;;;;;;5011534;28;20033;-59
2021/12/12 10:44:15;;;;;;;6.47;3.50;;;5.40;99.90;;;;;;5003806;28;20026;-60
2021/12/12 10:47:14;;;;;;;7.88;3.40;;;5.40;99.90;;;;;;4994471;28;20116;-58
2021/12/12 10:50:11;;;;;;;8.70;3.75;;;5.50;99.90;;;;;;5012732;28;20096;-58
2021/12/12 10:52:45;;;;;;;9.68;3.13;;;5.50;99.90;;;;;;4995225;28;21852;-60
2021/12/12 10:55:22;;;;;;;6.07;3.55;;;5.50;99.90;;;;;;5011209;28;20113;-63
2021/12/12 10:58:03;;;;;;;6.97;3.60;;;5.50;99.90;;;;;;5010800;28;20034;-53
2021/12/12 11:00:34;;;;;;;7.65;3.75;;;5.50;99.90;;;;;;5011387;28;20030;-63
2021/12/12 11:02:59;;;;;;;6.47;3.67;;;5.40;99.90;;;;;;5011777;28;20573;-62
2021/12/12 11:06:01;;;;;;;8.75;4.20;;;5.40;99.90;;;;;;5012432;28;20030;-61
2021/12/12 11:08:38;;;;;;;8.27;4.10;;;5.40;99.90;;;;;;4998499;28;20038;-61
2021/12/12 11:11:15;;;;;;;6.40;3.60;;;5.40;99.90;;;;;;5012070;28;20041;-62
2021/12/12 11:13:58;;;;;;;5.63;3.72;;;5.40;99.90;;;;;;5008875;28;20044;-66
2021/12/12 11:16:52;;;;;;;9.68;4.60;;;5.40;99.90;;;;;;5012571;28;20048;-59
2021/12/12 11:20:02;;;;;;;10.13;4.60;;;5.50;99.90;;;;;;4999110;28;20057;-60
2021/12/12 11:22:40;;;;;;;9.98;4.50;;;5.50;99.90;;;;;;5008823;28;20034;-59
2021/12/12 11:25:27;;;;;;;8.98;4.50;;;5.50;99.90;;;;;;5013028;28;20029;-59
2021/12/12 11:28:21;;;;;;;8.32;4.65;;;5.50;99.90;;;;;;5012253;28;20446;-60
2021/12/12 11:30:53;;;;;;;8.70;5.00;;;5.40;99.90;;;;;;5002480;28;20046;-57
2021/12/12 11:33:21;;;;;;;10.10;5.35;;;5.50;99.90;;;;;;5011272;28;20113;-62
2021/12/12 11:35:56;;;;;;;9.82;5.35;;;5.50;99.90;;;;;;5011419;28;20053;-64
2021/12/12 11:38:30;;;;;;;8.55;5.43;;;5.50;99.90;;;;;;5011854;28;20072;-59
2021/12/12 11:41:14;;;;;;;8.93;5.32;;;5.50;99.90;;;;;;5010428;28;20030;-61
2021/12/12 11:43:53;;;;;;;10.85;5.50;;;5.50;99.90;;;;;;4991614;28;20031;-64
2021/12/12 11:46:28;;;;;;;7.82;4.90;;;5.50;99.90;;;;;;5009739;28;20030;-61
2021/12/12 11:48:56;;;;;;;11.68;5.82;;;5.60;99.90;;;;;;5002879;28;20034;-64
2021/12/12 11:51:36;;;;;;;13.82;6.60;;;5.60;99.90;;;;;;5009106;28;20033;-61
2021/12/12 11:54:47;;;;;;;8.48;6.15;;;5.60;99.90;;;;;;5009795;28;20127;-61
2021/12/12 11:57:18;;;;;;;7.53;5.80;;;5.60;99.90;;;;;;4996531;28;20030;-61
2021/12/12 11:59:54;;;;;;;9.95;6.15;;;5.60;99.90;;;;;;5009520;28;20065;-64
2021/12/12 12:03:08;;;;;;;9.50;5.50;;;5.60;99.90;;;;;;5010715;28;20036;-63
2021/12/12 12:06:08;;;;;;;9.65;6.88;;;5.60;99.90;;;;;;4988339;28;20077;-64
2021/12/12 12:09:04;;;;;;;14.18;7.22;;;5.60;99.90;;;;;;5011632;28;20026;-65
2021/12/12 12:11:42;;;;;;;10.55;7.22;;;5.60;99.90;;;;;;5015959;28;20026;-64
2021/12/12 12:14:18;;;;;;;14.18;7.32;;;5.70;99.90;;;;;;5010808;28;20476;-63
2021/12/12 12:16:48;;;;;;;11.20;7.53;;;5.60;99.90;;;;;;4999147;28;20047;-64
2021/12/12 12:19:28;;;;;;;12.27;7.38;;;5.70;99.90;;;;;;5011378;28;20042;-64
2021/12/12 12:22:31;;;;;;;12.45;7.55;;;5.70;99.90;;;;;;5023226;28;20045;-65
2021/12/12 12:28:34;;;;;;;13.15;8.23;;;5.80;99.90;;;;;;5017767;28;20157;-65
2021/12/12 12:31:28;;;;;;;12.40;8.15;;;5.80;99.90;;;;;;5014376;28;20030;-65
2021/12/12 12:34:38;;;;;;;13.18;7.95;;;5.80;99.90;;;;;;5008981;28;20041;-64
2021/12/12 12:37:42;;;;;;;12.90;8.05;;;5.80;99.90;;;;;;5003905;28;20044;-63
2021/12/12 12:40:35;;;;;;;13.68;7.97;;;5.80;99.90;;;;;;5007753;28;20044;-64
2021/12/12 12:43:54;;;;;;;15.00;8.07;;;5.80;99.90;;;;;;4995960;28;20445;-64
2021/12/12 12:46:57;;;;;;;11.13;7.43;;;5.80;99.90;;;;;;4997634;28;20060;-64
2021/12/12 12:49:54;;;;;;;10.18;7.45;;;5.80;99.90;;;;;;5009538;28;20025;-64
2021/12/12 12:52:51;;;;;;;11.98;7.57;;;5.80;99.90;;;;;;5006812;28;20029;-64
2021/12/12 12:55:54;;;;;;;11.80;7.47;;;5.80;99.90;;;;;;5009659;28;20033;-64
2021/12/12 12:58:25;;;;;;;9.55;7.30;;;5.80;99.90;;;;;;5007468;28;20040;-65
2021/12/12 13:00:56;;;;;;;9.95;6.97;;;5.80;99.90;;;;;;5010241;28;20022;-64
2021/12/12 13:03:38;;;;;;;11.67;7.50;;;5.80;99.90;;;;;;5003339;28;20434;-62
2021/12/12 13:06:26;;;;;;;9.30;7.47;;;5.80;99.90;;;;;;5001900;28;20046;-62
2021/12/12 13:09:19;;;;;;;8.23;6.80;;;5.90;99.90;;;;;;5002232;28;20026;-59
2021/12/12 13:12:08;;;;;;;9.48;7.07;;;5.90;99.90;;;;;;5006715;28;20030;-59
2021/12/12 13:15:04;;;;;;;11.73;8.52;;;6.00;99.90;;;;;;5002248;28;20121;-60
2021/12/12 13:17:53;;;;;;;10.35;7.70;;;6.00;99.90;;;;;;5002661;28;20411;-63
2021/12/12 13:21:03;;;;;;;10.32;7.10;;;6.00;99.90;;;;;;5004440;28;20040;-61
2021/12/12 13:24:05;;;;;;;10.25;7.53;;;6.00;99.90;;;;;;5009926;28;20176;-62
2021/12/12 13:27:29;;;;;;;10.35;7.80;;;6.00;99.90;;;;;;5006779;28;20344;-61
2021/12/12 13:29:55;;;;;;;11.20;7.72;;;6.10;99.90;;;;;;5003879;28;20110;-58
2021/12/12 13:32:35;;;;;;;8.38;6.53;;;6.10;99.90;;;;;;5008496;28;20108;-63
2021/12/12 13:35:27;;;;;;;9.65;7.10;;;6.20;99.90;;;;;;5008450;28;20037;-60
2021/12/12 13:38:13;;;;;;;8.10;6.40;;;6.20;99.90;;;;;;4992329;28;20065;-61
2021/12/12 13:40:39;;;;;;;8.80;7.10;;;6.20;99.90;;;;;;5002749;28;20048;-61
2021/12/12 13:43:35;;;;;;;11.65;7.63;;;6.20;99.90;;;;;;5005488;28;20106;-60
2021/12/12 13:46:31;;;;;;;9.85;7.40;;;6.20;99.90;;;;;;5002152;28;20092;-61